Time;durP1;ratioP1;P1;durP2;ratioP2;P2;SDS_P1;SDS_P2;PMS_P1;PMS_P2;Temp;Humidity;BMP_temperature;BMP_pressure;BME280_temperature;BME280_humidity;BME280_pressure;Samples;Min_cycle;Max_cycle;Signal;HPM_P1;HPM_P2
2023/12/20 00:01:29;;;;;;;11.68;2.10;;;5.50;99.90;;;;;;5027946;28;20703;-68
2023/12/20 00:03:54;;;;;;;8.70;1.30;;;5.50;99.90;;;;;;5027798;28;20042;-70
2023/12/20 00:06:20;;;;;;;9.00;1.13;;;5.50;99.90;;;;;;5028095;28;20041;-68
2023/12/20 00:08:46;;;;;;;17.60;1.53;;;5.60;99.90;;;;;;5024842;28;20037;-68
2023/12/20 00:11:11;;;;;;;14.77;1.03;;;5.60;99.90;;;;;;5028294;28;20516;-68
2023/12/20 00:13:37;;;;;;;11.23;1.73;;;5.60;99.90;;;;;;5026180;28;20041;-68
2023/12/20 00:16:03;;;;;;;15.77;1.30;;;5.60;99.90;;;;;;5022837;28;20045;-68
2023/12/20 00:18:29;;;;;;;12.38;1.75;;;5.60;99.90;;;;;;5028082;28;20117;-69
2023/12/20 00:20:54;;;;;;;9.20;1.47;;;5.60;99.90;;;;;;5030092;28;20037;-68
2023/12/20 00:23:20;;;;;;;8.57;1.17;;;5.60;99.90;;;;;;5030114;28;20038;-68
2023/12/20 00:25:45;;;;;;;9.93;0.80;;;5.60;99.90;;;;;;5026879;28;20055;-68
2023/12/20 00:28:11;;;;;;;9.20;1.97;;;5.60;99.90;;;;;;5031507;28;20492;-68
2023/12/20 00:30:37;;;;;;;8.47;1.60;;;5.60;99.90;;;;;;5035704;28;20064;-68
2023/12/20 00:33:02;;;;;;;17.97;1.93;;;5.70;99.90;;;;;;5034419;28;20283;-68
2023/12/20 00:35:28;;;;;;;13.98;2.17;;;5.70;99.90;;;;;;5033803;28;20487;-68
2023/12/20 00:37:54;;;;;;;13.83;1.77;;;5.70;99.90;;;;;;5029788;28;20120;-68
2023/12/20 00:40:20;;;;;;;9.07;1.33;;;5.80;99.90;;;;;;5044142;28;20033;-68
2023/12/20 00:42:46;;;;;;;9.90;2.00;;;5.70;99.90;;;;;;5028403;28;20030;-68
2023/12/20 00:45:12;;;;;;;9.48;0.82;;;5.70;99.90;;;;;;5026966;28;20217;-68
2023/12/20 00:47:38;;;;;;;12.27;1.88;;;5.70;99.90;;;;;;5027553;28;20064;-68
2023/12/20 00:50:04;;;;;;;8.00;1.60;;;5.70;99.90;;;;;;5010852;28;20485;-68
2023/12/20 00:52:29;;;;;;;9.80;1.52;;;5.60;99.90;;;;;;5027776;28;20041;-68
2023/12/20 00:54:55;;;;;;;14.57;1.23;;;5.60;99.90;;;;;;5027258;28;20033;-68
2023/12/20 00:57:21;;;;;;;8.73;1.60;;;5.50;99.90;;;;;;5027710;28;20523;-68
2023/12/20 00:59:46;;;;;;;19.57;2.37;;;5.50;99.90;;;;;;5027924;28;20143;-68
2023/12/20 01:02:12;;;;;;;15.50;1.90;;;5.40;99.90;;;;;;5027455;28;20396;-68
2023/12/20 01:04:37;;;;;;;15.63;1.60;;;5.40;99.90;;;;;;5023451;28;20053;-67
2023/12/20 01:07:03;;;;;;;13.63;1.90;;;5.40;99.90;;;;;;5027205;28;20112;-68
2023/12/20 01:09:29;;;;;;;10.03;1.70;;;5.40;99.90;;;;;;5027725;28;20037;-68
2023/12/20 01:11:54;;;;;;;14.13;1.37;;;5.50;99.90;;;;;;5008500;28;20651;-68
2023/12/20 01:14:20;;;;;;;19.23;1.87;;;5.50;99.90;;;;;;5027016;28;20139;-68
2023/12/20 01:16:46;;;;;;;21.85;1.92;;;5.50;99.90;;;;;;5028908;28;20029;-68
2023/12/20 01:19:13;;;;;;;9.87;2.03;;;5.50;99.90;;;;;;5029676;28;20465;-68
2023/12/20 01:21:39;;;;;;;14.80;2.42;;;5.50;99.90;;;;;;5027858;28;20053;-68
2023/12/20 01:24:04;;;;;;;17.35;2.53;;;5.50;99.90;;;;;;5028772;28;20045;-68
2023/12/20 01:26:30;;;;;;;8.67;1.90;;;5.50;99.90;;;;;;5030620;28;20042;-68
2023/12/20 01:28:55;;;;;;;9.30;2.07;;;5.50;99.90;;;;;;5027345;28;20087;-68
2023/12/20 01:31:21;;;;;;;15.33;1.47;;;5.50;99.90;;;;;;5027382;28;20045;-69
2023/12/20 01:33:47;;;;;;;7.67;1.63;;;5.50;99.90;;;;;;5029441;28;20647;-68
2023/12/20 01:36:12;;;;;;;11.73;2.23;;;5.50;99.90;;;;;;5028465;28;20457;-68
2023/12/20 01:38:38;;;;;;;16.33;1.97;;;5.50;99.90;;;;;;5029609;28;20051;-68
2023/12/20 01:41:04;;;;;;;7.00;1.50;;;5.60;99.90;;;;;;5025047;28;20140;-68
2023/12/20 01:43:30;;;;;;;14.32;1.85;;;5.60;99.90;;;;;;5028864;28;20444;-69
2023/12/20 01:45:59;;;;;;;11.43;2.25;;;5.60;99.90;;;;;;5027920;28;20046;-68
2023/12/20 01:48:26;;;;;;;11.10;2.25;;;5.60;99.90;;;;;;5028359;28;20441;-68
2023/12/20 01:50:52;;;;;;;;;;;5.50;99.90;;;;;;5009707;28;20033;-68
2023/12/20 01:53:21;;;;;;;10.55;1.55;;;5.50;99.90;;;;;;5036284;28;19917;-69
2023/12/20 01:55:48;;;;;;;12.32;3.13;;;5.50;99.90;;;;;;5028148;28;20037;-68
2023/12/20 01:58:14;;;;;;;17.35;2.80;;;5.60;99.90;;;;;;5027859;28;20527;-68
2023/12/20 02:00:40;;;;;;;10.50;1.98;;;5.60;99.90;;;;;;5010553;28;20069;-68
2023/12/20 02:03:06;;;;;;;15.95;2.47;;;5.60;99.90;;;;;;5027314;28;20080;-68
2023/12/20 02:05:34;;;;;;;20.38;2.85;;;5.60;99.90;;;;;;5021682;28;20508;-68
2023/12/20 02:07:59;;;;;;;17.55;3.25;;;5.70;99.90;;;;;;5042688;28;20036;-68
2023/12/20 02:10:25;;;;;;;18.73;2.90;;;5.70;99.90;;;;;;5027535;28;20025;-68
2023/12/20 02:12:51;;;;;;;15.82;1.92;;;5.70;99.90;;;;;;5026188;28;20403;-69
2023/12/20 02:15:17;;;;;;;14.80;3.33;;;5.70;99.90;;;;;;5028572;28;20063;-68
2023/12/20 02:17:45;;;;;;;24.20;3.00;;;5.80;99.90;;;;;;5026033;28;20048;-68
2023/12/20 02:20:10;;;;;;;11.77;1.48;;;5.80;99.90;;;;;;5028816;28;20155;-68
2023/12/20 02:22:36;;;;;;;19.33;2.07;;;5.80;99.90;;;;;;5028337;28;20799;-68
2023/12/20 02:25:02;;;;;;;16.00;2.00;;;5.80;99.90;;;;;;5028031;28;20394;-68
2023/12/20 02:27:28;;;;;;;9.03;1.67;;;5.80;99.90;;;;;;5028308;28;20091;-70
2023/12/20 02:29:54;;;;;;;26.92;3.72;;;5.80;99.90;;;;;;5027880;28;20304;-68
2023/12/20 02:32:21;;;;;;;33.53;3.40;;;5.80;99.90;;;;;;5027242;28;20099;-68
2023/12/20 02:34:49;;;;;;;22.42;3.38;;;5.90;99.90;;;;;;5028902;28;20041;-68
2023/12/20 02:37:15;;;;;;;21.70;2.13;;;5.90;99.90;;;;;;5024835;28;20124;-68
2023/12/20 02:39:41;;;;;;;22.15;2.90;;;5.90;99.90;;;;;;5028718;28;20496;-68
2023/12/20 02:42:06;;;;;;;19.20;2.58;;;5.90;99.90;;;;;;5026707;28;20049;-68
2023/12/20 02:44:32;;;;;;;16.33;2.90;;;6.00;99.90;;;;;;5027070;28;20036;-68
2023/12/20 02:46:57;;;;;;;21.63;2.60;;;6.00;99.90;;;;;;5027013;28;20099;-68
2023/12/20 02:49:23;;;;;;;13.37;2.47;;;6.00;99.90;;;;;;5026825;28;20033;-68
2023/12/20 02:51:49;;;;;;;14.27;2.60;;;6.00;99.90;;;;;;5030988;28;20037;-69
2023/12/20 02:54:14;;;;;;;19.00;3.27;;;6.00;99.90;;;;;;5028935;28;20112;-68
2023/12/20 02:56:40;;;;;;;16.63;1.87;;;6.10;99.90;;;;;;5027882;28;20103;-68
2023/12/20 02:59:08;;;;;;;14.93;2.00;;;6.10;99.90;;;;;;5027849;28;20364;-68
2023/12/20 03:01:34;;;;;;;13.93;2.05;;;6.10;99.90;;;;;;5009687;28;20038;-69
2023/12/20 03:03:59;;;;;;;24.33;3.78;;;6.10;99.90;;;;;;5007054;28;20041;-68
2023/12/20 03:06:25;;;;;;;19.83;2.17;;;6.10;99.90;;;;;;5021583;28;20392;-68
2023/12/20 03:08:51;;;;;;;16.17;2.73;;;6.10;99.90;;;;;;5030416;28;20037;-68
2023/12/20 03:11:16;;;;;;;18.77;2.67;;;6.10;99.90;;;;;;5030954;28;20287;-68
2023/12/20 03:13:42;;;;;;;17.57;3.43;;;6.20;99.90;;;;;;5031374;28;20269;-68
2023/12/20 03:16:09;;;;;;;18.73;2.97;;;6.20;99.90;;;;;;5030761;28;20128;-68
2023/12/20 03:18:34;;;;;;;13.48;3.22;;;6.20;99.90;;;;;;5030204;28;20033;-68
2023/12/20 03:21:00;;;;;;;22.13;4.30;;;6.20;99.90;;;;;;5038949;28;20033;-68
2023/12/20 03:23:27;;;;;;;17.80;3.50;;;6.30;99.90;;;;;;5029982;28;20539;-68
2023/12/20 03:25:52;;;;;;;18.08;2.92;;;6.30;99.90;;;;;;5032579;28;20527;-68
2023/12/20 03:28:19;;;;;;;22.88;3.92;;;6.30;99.90;;;;;;5031918;28;20076;-68
2023/12/20 03:30:44;;;;;;;25.27;4.20;;;6.30;99.90;;;;;;5030836;28;20052;-68
2023/12/20 03:33:10;;;;;;;18.67;4.13;;;6.30;99.90;;;;;;5032087;28;20033;-68
2023/12/20 03:35:36;;;;;;;16.10;3.35;;;6.30;99.90;;;;;;5031861;28;20033;-68
2023/12/20 03:38:01;;;;;;;28.17;4.23;;;6.30;99.90;;;;;;5031678;28;20030;-69
2023/12/20 03:40:27;;;;;;;33.77;3.97;;;6.30;99.90;;;;;;5030303;28;20264;-68
2023/12/20 03:42:53;;;;;;;20.83;3.73;;;6.30;99.90;;;;;;5032886;28;20036;-68
2023/12/20 03:45:18;;;;;;;25.07;3.90;;;6.30;99.90;;;;;;5029521;28;20037;-68
2023/12/20 03:47:44;;;;;;;25.43;3.47;;;6.30;99.90;;;;;;5029688;28;20053;-68
2023/12/20 03:50:09;;;;;;;22.10;4.03;;;6.30;99.90;;;;;;5031038;28;20033;-68
2023/12/20 03:52:35;;;;;;;27.60;4.97;;;6.30;99.90;;;;;;5012533;28;20418;-68
2023/12/20 03:55:01;;;;;;;15.87;3.30;;;6.30;99.90;;;;;;5029122;28;20041;-67
2023/12/20 03:57:26;;;;;;;29.93;4.40;;;6.20;99.90;;;;;;5029183;28;20041;-68
2023/12/20 03:59:52;;;;;;;28.63;3.90;;;6.10;99.90;;;;;;5030561;28;20298;-68
2023/12/20 04:02:17;;;;;;;21.63;3.63;;;6.20;99.90;;;;;;5031806;28;20116;-68
2023/12/20 04:04:43;;;;;;;20.00;3.67;;;6.20;99.90;;;;;;5030806;28;20033;-68
2023/12/20 04:07:09;;;;;;;17.60;3.33;;;6.20;99.90;;;;;;5025065;28;20034;-68
2023/12/20 04:09:35;;;;;;;28.67;4.40;;;6.20;99.90;;;;;;5030812;28;20030;-68
2023/12/20 04:12:00;;;;;;;18.03;2.77;;;6.20;99.90;;;;;;5031249;28;20281;-68
2023/12/20 04:14:26;;;;;;;24.85;4.13;;;6.20;99.90;;;;;;5028539;28;20081;-68
2023/12/20 04:16:52;;;;;;;24.13;4.03;;;6.20;99.90;;;;;;5031247;28;20120;-68
2023/12/20 04:19:18;;;;;;;30.15;4.47;;;6.20;99.90;;;;;;5028077;28;20042;-68
2023/12/20 04:21:43;;;;;;;23.37;4.00;;;6.20;99.90;;;;;;5030418;28;20030;-68
2023/12/20 04:24:09;;;;;;;18.37;3.90;;;6.20;99.90;;;;;;5033264;28;20033;-68
2023/12/20 04:26:34;;;;;;;44.10;4.60;;;6.20;99.90;;;;;;5028500;28;20045;-68
2023/12/20 04:29:00;;;;;;;26.53;5.43;;;6.20;99.90;;;;;;5031022;28;20219;-68
2023/12/20 04:31:25;;;;;;;28.33;4.00;;;6.20;99.90;;;;;;5031736;28;20842;-68
2023/12/20 04:33:51;;;;;;;34.77;4.30;;;6.20;99.90;;;;;;5028334;28;20037;-68
2023/12/20 04:36:17;;;;;;;27.93;4.13;;;6.20;99.90;;;;;;5030378;28;20048;-69
2023/12/20 04:38:42;;;;;;;23.50;4.33;;;6.30;99.90;;;;;;5028580;28;20495;-68
2023/12/20 04:41:08;;;;;;;22.30;3.77;;;6.30;99.90;;;;;;5030226;28;20129;-68
2023/12/20 04:43:34;;;;;;;27.80;3.30;;;6.20;99.90;;;;;;5029507;28;20172;-68
2023/12/20 04:45:59;;;;;;;24.20;4.13;;;6.30;99.90;;;;;;5029901;28;20048;-68
2023/12/20 04:48:25;;;;;;;27.17;6.13;;;6.30;99.90;;;;;;5028030;28;20041;-68
2023/12/20 04:50:50;;;;;;;21.50;3.20;;;6.40;99.90;;;;;;5012096;28;20389;-68
2023/12/20 04:53:16;;;;;;;27.73;4.53;;;6.40;99.90;;;;;;5029035;28;20037;-69
2023/12/20 04:55:41;;;;;;;26.13;4.33;;;6.40;99.90;;;;;;5020836;28;20117;-68
2023/12/20 04:58:07;;;;;;;24.03;4.77;;;6.40;99.90;;;;;;5034407;28;20034;-68
2023/12/20 05:00:33;;;;;;;33.35;4.78;;;6.40;99.90;;;;;;5029298;28;20041;-68
2023/12/20 05:02:58;;;;;;;24.67;4.13;;;6.40;99.90;;;;;;5031639;28;20033;-68
2023/12/20 05:05:24;;;;;;;29.20;5.50;;;6.50;99.90;;;;;;5028433;28;20067;-68
2023/12/20 05:07:50;;;;;;;24.40;4.63;;;6.50;99.90;;;;;;5007078;28;20519;-68
2023/12/20 05:10:15;;;;;;;29.60;4.30;;;6.50;99.90;;;;;;5028658;28;20049;-68
2023/12/20 05:12:41;;;;;;;28.92;4.35;;;6.50;99.90;;;;;;5030330;28;20164;-69
2023/12/20 05:15:07;;;;;;;28.00;5.50;;;6.60;99.90;;;;;;5027954;28;20084;-68
2023/12/20 05:17:33;;;;;;;26.17;4.63;;;6.60;99.90;;;;;;5027756;28;20030;-68
2023/12/20 05:19:58;;;;;;;27.50;4.17;;;6.60;99.90;;;;;;5027625;28;20087;-68
2023/12/20 05:22:24;;;;;;;41.05;5.47;;;6.60;99.90;;;;;;5028318;28;20084;-68
2023/12/20 05:24:50;;;;;;;24.10;3.90;;;6.60;99.90;;;;;;5028887;28;20067;-68
2023/12/20 05:27:15;;;;;;;24.23;5.37;;;6.70;99.90;;;;;;5030208;28;20385;-68
2023/12/20 05:29:41;;;;;;;22.47;3.73;;;6.70;99.90;;;;;;5029314;28;20088;-66
2023/12/20 05:32:07;;;;;;;23.93;4.53;;;6.70;99.90;;;;;;5027085;28;20484;-67
2023/12/20 05:34:32;;;;;;;22.73;4.87;;;6.70;99.90;;;;;;5028272;28;20086;-68
2023/12/20 05:36:58;;;;;;;20.20;4.00;;;6.70;99.90;;;;;;5027914;28;20037;-67
2023/12/20 05:39:23;;;;;;;32.40;5.20;;;6.70;99.90;;;;;;5029503;28;20147;-67
2023/12/20 05:41:49;;;;;;;27.27;4.43;;;6.70;99.90;;;;;;5030067;28;20272;-67
2023/12/20 05:44:15;;;;;;;35.07;5.43;;;6.80;99.90;;;;;;5028693;28;20056;-67
2023/12/20 05:46:40;;;;;;;31.30;6.03;;;6.80;99.90;;;;;;5027228;28;20033;-67
2023/12/20 05:49:06;;;;;;;33.30;4.70;;;6.80;99.90;;;;;;5028750;28;20068;-67
2023/12/20 05:51:32;;;;;;;27.27;4.00;;;6.80;99.90;;;;;;5028312;28;20037;-68
2023/12/20 05:53:58;;;;;;;29.80;5.23;;;6.80;99.90;;;;;;5028282;28;20562;-68
2023/12/20 05:56:24;;;;;;;31.27;6.10;;;6.80;99.90;;;;;;5028695;28;20287;-68
2023/12/20 05:58:50;;;;;;;32.80;5.30;;;6.80;99.90;;;;;;5012049;28;20524;-68
2023/12/20 06:01:19;;;;;;;26.10;4.45;;;6.80;99.90;;;;;;5027895;28;20048;-68
2023/12/20 06:03:45;;;;;;;30.38;5.07;;;6.90;99.90;;;;;;5027431;28;20407;-68
2023/12/20 06:06:12;;;;;;;22.98;4.72;;;6.90;99.90;;;;;;5026866;28;20060;-68
2023/12/20 06:08:38;;;;;;;35.08;5.15;;;6.90;99.90;;;;;;5022676;28;20423;-68
2023/12/20 06:11:05;;;;;;;25.63;4.35;;;6.90;99.90;;;;;;5029756;28;20029;-68
2023/12/20 06:13:31;;;;;;;29.02;5.55;;;6.90;99.90;;;;;;5027713;28;20038;-71
2023/12/20 06:15:56;;;;;;;25.67;4.18;;;6.90;99.90;;;;;;5035995;28;20591;-70
2023/12/20 06:18:22;;;;;;;37.20;4.53;;;7.00;99.90;;;;;;5031635;28;20037;-70
2023/12/20 06:20:48;;;;;;;21.10;4.57;;;6.90;99.90;;;;;;5026921;28;20292;-70
2023/12/20 06:23:14;;;;;;;31.13;4.95;;;6.90;99.90;;;;;;5027727;28;20045;-70
2023/12/20 06:25:39;;;;;;;25.27;3.83;;;7.00;99.90;;;;;;5029323;28;20124;-70
2023/12/20 06:28:06;;;;;;;26.50;4.20;;;7.00;99.90;;;;;;5029136;28;20037;-70
2023/12/20 06:30:32;;;;;;;24.88;5.25;;;7.00;99.90;;;;;;5026587;28;20049;-68
2023/12/20 06:32:58;;;;;;;33.50;6.13;;;7.00;99.90;;;;;;5028454;28;20451;-68
2023/12/20 06:35:24;;;;;;;31.92;5.28;;;7.00;99.90;;;;;;5024935;28;20038;-68
2023/12/20 06:37:50;;;;;;;26.02;5.15;;;7.10;99.90;;;;;;5030748;28;20068;-68
2023/12/20 06:40:16;;;;;;;23.58;4.30;;;7.00;99.90;;;;;;5030836;28;20080;-68
2023/12/20 06:42:42;;;;;;;26.77;5.75;;;7.10;99.90;;;;;;5013115;28;20404;-68
2023/12/20 06:45:08;;;;;;;28.15;4.95;;;7.10;99.90;;;;;;5031708;28;20037;-68
2023/12/20 06:47:33;;;;;;;33.80;5.07;;;7.10;99.90;;;;;;5031029;28;20523;-68
2023/12/20 06:49:59;;;;;;;24.37;4.00;;;7.10;99.90;;;;;;5032821;28;20029;-68
2023/12/20 06:52:25;;;;;;;16.38;3.38;;;7.10;99.90;;;;;;5032171;28;20037;-68
2023/12/20 06:54:50;;;;;;;24.17;5.23;;;7.10;99.90;;;;;;5035205;28;20463;-68
2023/12/20 06:57:16;;;;;;;24.30;4.23;;;7.10;99.90;;;;;;5031487;28;20417;-68
2023/12/20 06:59:42;;;;;;;23.53;3.97;;;7.10;99.90;;;;;;5015774;28;20080;-68
2023/12/20 07:02:08;;;;;;;25.42;4.65;;;7.10;99.90;;;;;;5029879;28;20092;-68
2023/12/20 07:04:34;;;;;;;;;;;7.10;99.90;;;;;;5028992;28;20037;-68
2023/12/20 07:07:00;;;;;;;18.38;3.28;;;7.10;99.90;;;;;;5029057;28;20330;-68
2023/12/20 07:09:26;;;;;;;16.63;3.50;;;7.10;99.90;;;;;;5031775;28;20037;-68
2023/12/20 07:11:52;;;;;;;25.90;3.95;;;7.10;99.90;;;;;;5032063;28;20063;-68
2023/12/20 07:14:18;;;;;;;24.17;3.72;;;7.20;99.90;;;;;;5030550;28;20045;-68
2023/12/20 07:16:44;;;;;;;23.63;4.90;;;7.10;99.90;;;;;;5020952;28;20123;-68
2023/12/20 07:19:09;;;;;;;32.57;4.47;;;7.20;99.90;;;;;;5030619;28;20045;-68
2023/12/20 07:21:35;;;;;;;26.23;3.40;;;7.20;99.90;;;;;;5030422;28;20479;-68
2023/12/20 07:24:00;;;;;;;21.80;4.20;;;7.20;99.90;;;;;;5007996;28;20041;-68
2023/12/20 07:26:26;;;;;;;33.80;4.73;;;7.20;99.90;;;;;;5028076;28;20128;-68
2023/12/20 07:28:52;;;;;;;23.90;3.50;;;7.20;99.90;;;;;;5027745;28;20280;-68
2023/12/20 07:31:18;;;;;;;19.47;4.23;;;7.30;99.90;;;;;;5026916;28;20112;-68
2023/12/20 07:33:43;;;;;;;23.48;4.18;;;7.30;99.90;;;;;;5029618;28;20048;-69
2023/12/20 07:36:09;;;;;;;22.17;3.60;;;7.30;99.90;;;;;;5025594;28;20045;-68
2023/12/20 07:38:34;;;;;;;26.13;4.40;;;7.30;99.90;;;;;;5028029;28;20075;-68
2023/12/20 07:41:00;;;;;;;17.10;3.60;;;7.30;99.90;;;;;;5031618;28;20409;-68
2023/12/20 07:43:26;;;;;;;29.23;3.80;;;7.30;99.90;;;;;;5029754;28;20280;-69
2023/12/20 07:45:51;;;;;;;21.30;5.00;;;7.30;99.90;;;;;;5033164;28;20053;-68
2023/12/20 07:48:17;;;;;;;25.53;4.13;;;7.30;99.90;;;;;;5028236;28;20067;-68
2023/12/20 07:50:43;;;;;;;21.03;4.60;;;7.30;99.90;;;;;;5026394;28;20160;-67
2023/12/20 07:53:08;;;;;;;23.20;4.37;;;7.40;99.90;;;;;;5028234;28;20408;-67
2023/12/20 07:55:34;;;;;;;26.70;2.87;;;7.40;99.90;;;;;;5019009;28;20280;-68
2023/12/20 07:58:00;;;;;;;19.88;3.70;;;7.40;99.90;;;;;;5005401;28;20285;-68
2023/12/20 08:00:27;;;;;;;24.08;3.97;;;7.40;99.90;;;;;;5019666;28;20417;-68
2023/12/20 08:02:52;;;;;;;20.35;3.85;;;7.40;99.90;;;;;;5015975;28;20046;-67
2023/12/20 08:05:18;;;;;;;27.03;3.57;;;7.40;99.90;;;;;;5011499;28;20033;-68
2023/12/20 08:07:44;;;;;;;27.13;3.75;;;7.40;99.90;;;;;;5019681;28;20078;-66
2023/12/20 08:10:10;;;;;;;21.37;3.93;;;7.40;99.90;;;;;;5027863;28;20037;-68
2023/12/20 08:12:35;;;;;;;29.20;4.43;;;7.40;99.90;;;;;;5027526;28;20400;-67
2023/12/20 08:15:02;;;;;;;28.10;3.88;;;7.40;99.90;;;;;;5028150;28;20048;-68
2023/12/20 08:17:27;;;;;;;24.85;5.00;;;7.30;99.90;;;;;;5029899;28;20033;-64
2023/12/20 08:19:53;;;;;;;26.33;3.60;;;7.30;99.90;;;;;;5025499;28;20056;-65
2023/12/20 08:22:19;;;;;;;26.60;3.90;;;7.40;99.90;;;;;;5020623;28;20431;-67
2023/12/20 08:24:44;;;;;;;28.15;5.13;;;7.40;99.90;;;;;;5021459;28;20370;-68
2023/12/20 08:27:10;;;;;;;26.10;4.33;;;7.30;99.90;;;;;;5027419;28;20453;-68
2023/12/20 08:29:36;;;;;;;31.53;5.57;;;7.30;99.90;;;;;;5015397;28;20159;-68
2023/12/20 08:32:01;;;;;;;29.17;5.20;;;7.30;99.90;;;;;;5025209;28;20045;-67
2023/12/20 08:34:27;;;;;;;33.40;6.78;;;7.30;99.90;;;;;;5029534;28;20045;-67
2023/12/20 08:36:53;;;;;;;27.25;3.95;;;7.30;99.90;;;;;;5028121;28;20035;-68
2023/12/20 08:39:19;;;;;;;27.35;4.18;;;7.40;99.90;;;;;;5034682;28;20469;-68
2023/12/20 08:41:45;;;;;;;28.58;5.05;;;7.40;99.90;;;;;;5035317;28;20076;-68
2023/12/20 08:44:10;;;;;;;32.10;4.83;;;7.40;99.90;;;;;;5009179;28;20049;-69
2023/12/20 08:46:36;;;;;;;18.73;4.03;;;7.40;99.90;;;;;;5024219;28;20065;-67
2023/12/20 08:49:02;;;;;;;27.60;4.18;;;7.40;99.90;;;;;;5027123;28;20292;-67
2023/12/20 08:51:28;;;;;;;28.67;6.13;;;7.40;99.90;;;;;;5023140;28;20115;-67
2023/12/20 08:53:54;;;;;;;27.85;4.47;;;7.50;99.90;;;;;;5024146;28;20376;-67
2023/12/20 08:56:20;;;;;;;48.67;8.13;;;7.50;99.90;;;;;;5024145;28;20076;-67
2023/12/20 08:58:46;;;;;;;20.42;4.25;;;7.50;99.90;;;;;;5009901;28;20069;-69
2023/12/20 09:01:12;;;;;;;;;;;7.60;99.90;;;;;;5034625;28;20420;-66
2023/12/20 09:03:38;;;;;;;29.05;5.65;;;7.60;99.90;;;;;;5024379;28;19968;-66
2023/12/20 09:06:05;;;;;;;30.45;6.03;;;7.60;99.90;;;;;;5025861;28;20041;-66
2023/12/20 09:08:30;;;;;;;27.05;4.30;;;7.60;99.90;;;;;;5010884;28;20033;-66
2023/12/20 09:10:56;;;;;;;33.63;4.80;;;7.60;99.90;;;;;;5026556;28;20095;-67
2023/12/20 09:13:27;;;;;;;29.83;4.60;;;7.60;99.90;;;;;;5027830;28;20045;-67
2023/12/20 09:15:56;;;;;;;21.75;4.18;;;7.70;99.90;;;;;;5026929;28;20124;-67
2023/12/20 09:18:22;;;;;;;26.20;5.30;;;7.70;99.90;;;;;;5026081;28;20653;-67
2023/12/20 09:20:47;;;;;;;21.97;3.90;;;7.70;99.90;;;;;;5012031;28;20552;-67
2023/12/20 09:23:13;;;;;;;26.20;4.60;;;7.70;99.90;;;;;;5023152;28;20045;-68
2023/12/20 09:25:38;;;;;;;22.90;5.10;;;7.70;99.90;;;;;;5024337;28;20049;-67
2023/12/20 09:28:04;;;;;;;26.33;5.83;;;7.70;99.90;;;;;;5004704;28;20080;-67
2023/12/20 09:30:30;;;;;;;36.42;4.95;;;7.80;99.90;;;;;;5023252;28;20041;-66
2023/12/20 09:32:55;;;;;;;19.57;3.30;;;7.80;99.90;;;;;;5022083;28;20041;-66
2023/12/20 09:35:21;;;;;;;31.67;5.53;;;7.80;99.90;;;;;;5022986;28;20092;-66
2023/12/20 09:37:47;;;;;;;29.48;5.50;;;7.80;99.90;;;;;;5025632;28;20045;-66
2023/12/20 09:40:13;;;;;;;28.42;3.85;;;7.80;99.90;;;;;;5023196;28;20068;-66
2023/12/20 09:43:03;;;;;;;21.88;5.32;;;7.90;99.90;;;;;;5023701;28;20033;-66
2023/12/20 09:45:30;;;;;;;33.60;4.95;;;7.90;99.90;;;;;;5023601;28;20145;-66
2023/12/20 09:47:57;;;;;;;30.08;5.15;;;7.90;99.90;;;;;;5022571;28;20073;-66
2023/12/20 09:50:23;;;;;;;24.55;4.22;;;7.90;99.90;;;;;;5025593;28;20034;-67
2023/12/20 09:52:51;;;;;;;22.65;3.45;;;8.00;99.90;;;;;;5024725;28;20064;-66
2023/12/20 09:55:21;;;;;;;23.55;3.85;;;8.20;99.90;;;;;;5021761;28;20033;-66
2023/12/20 09:57:47;;;;;;;30.15;5.10;;;8.50;99.90;;;;;;5022531;28;20037;-66
2023/12/20 10:00:14;;;;;;;19.60;4.47;;;8.60;99.90;;;;;;5023264;28;20065;-66
2023/12/20 10:02:50;;;;;;;25.65;3.00;;;8.80;99.90;;;;;;5033691;28;20052;-65
2023/12/20 10:05:28;;;;;;;23.67;4.07;;;8.80;99.90;;;;;;5026178;28;20049;-66
2023/12/20 10:07:54;;;;;;;25.95;4.00;;;8.80;99.90;;;;;;5026516;28;20080;-66
2023/12/20 10:10:19;;;;;;;28.27;4.03;;;8.70;99.90;;;;;;5026297;28;20087;-66
2023/12/20 10:13:05;;;;;;;22.63;4.73;;;8.60;99.90;;;;;;5023978;28;20025;-66
2023/12/20 10:15:35;;;;;;;19.83;3.67;;;8.50;99.90;;;;;;5026378;28;20060;-66
2023/12/20 10:18:01;;;;;;;12.40;1.50;;;8.50;99.90;;;;;;5009404;28;20120;-66
2023/12/20 10:20:28;;;;;;;7.78;1.33;;;8.30;99.90;;;;;;5014986;28;20037;-66
2023/12/20 10:22:58;;;;;;;11.38;1.77;;;8.10;99.90;;;;;;5032117;28;20434;-66
2023/12/20 10:25:24;;;;;;;8.38;1.15;;;7.90;99.90;;;;;;5031340;28;20045;-66
2023/12/20 10:28:08;;;;;;;8.85;0.77;;;7.70;99.90;;;;;;5029163;28;20116;-66
2023/12/20 10:30:33;;;;;;;9.85;1.33;;;7.50;99.90;;;;;;5032291;28;20504;-66
2023/12/20 10:32:59;;;;;;;7.07;0.87;;;7.40;99.90;;;;;;5011345;28;20069;-66
2023/12/20 10:35:24;;;;;;;10.03;1.20;;;7.40;99.90;;;;;;5032363;28;20041;-67
2023/12/20 10:37:55;;;;;;;7.30;1.03;;;7.30;99.90;;;;;;5031402;28;20419;-66
2023/12/20 10:40:21;;;;;;;8.45;1.02;;;7.20;99.90;;;;;;5032048;28;20052;-66
2023/12/20 10:42:48;;;;;;;6.75;0.88;;;7.20;99.90;;;;;;5032489;28;20036;-66
2023/12/20 10:45:13;;;;;;;12.35;1.27;;;7.10;99.90;;;;;;5026686;28;20056;-66
2023/12/20 10:47:40;;;;;;;10.10;0.83;;;7.10;99.90;;;;;;5029303;28;20030;-66
2023/12/20 10:50:07;;;;;;;6.40;1.65;;;7.10;99.90;;;;;;5045454;28;20367;-66
2023/12/20 10:52:35;;;;;;;8.60;0.90;;;7.10;99.90;;;;;;5031694;28;20160;-66
2023/12/20 10:55:01;;;;;;;7.78;1.00;;;7.10;99.90;;;;;;5029870;28;20144;-67
2023/12/20 10:57:28;;;;;;;5.00;0.50;;;7.00;99.90;;;;;;5029516;28;20124;-66
2023/12/20 10:59:54;;;;;;;12.82;0.75;;;7.00;99.90;;;;;;5031246;28;20041;-66
2023/12/20 11:02:22;;;;;;;8.40;1.30;;;7.00;99.90;;;;;;5033379;28;20448;-66
2023/12/20 11:05:08;;;;;;;8.48;0.98;;;6.90;99.90;;;;;;5031942;28;20099;-66
2023/12/20 11:07:47;;;;;;;5.32;1.15;;;6.90;99.90;;;;;;5031260;28;20053;-66
2023/12/20 11:10:37;;;;;;;6.38;0.90;;;6.90;99.90;;;;;;5030822;28;20041;-66
2023/12/20 11:13:17;;;;;;;6.40;0.60;;;6.90;99.90;;;;;;5039220;28;20518;-66
2023/12/20 11:15:43;;;;;;;9.73;1.00;;;7.00;99.90;;;;;;5028933;28;20140;-66
2023/12/20 11:18:09;;;;;;;9.30;1.50;;;7.00;99.90;;;;;;5029079;28;20037;-66
2023/12/20 11:20:42;;;;;;;11.00;1.10;;;7.00;99.90;;;;;;5033158;28;20052;-66
2023/12/20 11:23:10;;;;;;;6.00;1.08;;;7.00;99.90;;;;;;5027931;28;20284;-66
2023/12/20 11:26:00;;;;;;;9.02;1.10;;;7.00;99.90;;;;;;5037489;28;20033;-66
2023/12/20 11:28:26;;;;;;;7.80;0.70;;;7.00;99.90;;;;;;5029831;28;20054;-66
2023/12/20 11:30:59;;;;;;;8.55;1.38;;;7.00;99.90;;;;;;5032224;28;20539;-66
2023/12/20 11:33:38;;;;;;;11.07;1.25;;;7.00;99.90;;;;;;5028763;28;20117;-66
2023/12/20 11:36:13;;;;;;;7.60;0.52;;;7.00;99.90;;;;;;5027760;28;20124;-66
2023/12/20 11:38:49;;;;;;;5.00;1.42;;;7.00;99.90;;;;;;5029640;28;20643;-66
2023/12/20 11:41:15;;;;;;;7.15;1.15;;;7.00;99.90;;;;;;5028519;28;20388;-66
2023/12/20 11:43:41;;;;;;;12.00;1.45;;;7.00;99.90;;;;;;5012475;28;20048;-66
2023/12/20 11:46:11;;;;;;;10.60;1.60;;;7.10;99.90;;;;;;5028808;28;20049;-66
2023/12/20 11:48:38;;;;;;;11.85;0.63;;;7.10;99.90;;;;;;5030291;28;20126;-66
2023/12/20 11:51:14;;;;;;;4.68;0.60;;;7.10;99.90;;;;;;5013027;28;20067;-67
2023/12/20 11:53:42;;;;;;;5.70;1.05;;;7.10;99.90;;;;;;5011877;28;20039;-66
2023/12/20 11:56:08;;;;;;;6.63;1.10;;;7.20;99.90;;;;;;5030817;28;20083;-67
2023/12/20 11:58:34;;;;;;;12.75;1.52;;;7.20;99.90;;;;;;5030029;28;20140;-66
2023/12/20 12:01:02;;;;;;;10.25;0.98;;;7.20;99.90;;;;;;5022957;28;20883;-66
2023/12/20 12:03:28;;;;;;;13.73;2.50;;;7.10;99.90;;;;;;5038469;28;20049;-66
2023/12/20 12:05:53;;;;;;;7.40;0.60;;;7.10;99.90;;;;;;5008543;28;20043;-66
2023/12/20 12:08:19;;;;;;;8.53;1.80;;;7.10;99.90;;;;;;5009041;28;20044;-66
2023/12/20 12:10:45;;;;;;;10.07;1.63;;;7.10;99.90;;;;;;5026424;28;20349;-66
2023/12/20 12:13:11;;;;;;;14.10;1.40;;;7.10;99.90;;;;;;5025616;28;20114;-66
2023/12/20 12:15:37;;;;;;;9.02;1.30;;;7.10;99.90;;;;;;5028538;28;20160;-67
2023/12/20 12:18:05;;;;;;;20.05;1.45;;;7.10;99.90;;;;;;5016268;28;20083;-67
2023/12/20 12:20:30;;;;;;;12.50;1.30;;;7.10;99.90;;;;;;5005819;28;20045;-67
2023/12/20 12:23:01;;;;;;;11.88;1.75;;;7.10;99.90;;;;;;5008984;28;20107;-67
2023/12/20 12:25:27;;;;;;;11.75;1.00;;;7.10;99.90;;;;;;5026762;28;20064;-67
2023/12/20 12:27:53;;;;;;;14.73;1.15;;;7.10;99.90;;;;;;5027088;28;20520;-67
2023/12/20 12:30:18;;;;;;;10.68;1.00;;;7.10;99.90;;;;;;5025499;28;20063;-67
2023/12/20 12:32:45;;;;;;;8.33;1.40;;;7.10;99.90;;;;;;5029494;28;20044;-67
2023/12/20 12:35:10;;;;;;;9.80;0.73;;;7.20;99.90;;;;;;5027156;28;20061;-67
2023/12/20 12:37:39;;;;;;;7.95;2.30;;;7.20;99.90;;;;;;5030804;28;20075;-67
2023/12/20 12:40:13;;;;;;;6.70;0.60;;;7.20;99.90;;;;;;5016346;28;20067;-67
2023/12/20 12:42:39;;;;;;;8.50;0.90;;;7.20;99.90;;;;;;5036452;28;20076;-67
2023/12/20 12:45:05;;;;;;;;;;;7.20;99.90;;;;;;5026811;28;20088;-67
2023/12/20 12:47:31;;;;;;;10.13;1.02;;;7.10;99.90;;;;;;5021386;28;20300;-67